sensor_id;sensor_type;location;lat;lon;timestamp;P1;durP1;ratioP1;P2;durP2;ratioP2
53710;SDS011;39605;52.704;6.752;2023-08-17T00:01:50;6.00;;;1.35;;
53710;SDS011;39605;52.704;6.752;2023-08-17T00:04:16;5.05;;;1.48;;
53710;SDS011;39605;52.704;6.752;2023-08-17T00:06:42;6.47;;;1.10;;
53710;SDS011;39605;52.704;6.752;2023-08-17T00:09:09;5.88;;;1.10;;
53710;SDS011;39605;52.704;6.752;2023-08-17T00:11:35;4.03;;;1.13;;
53710;SDS011;39605;52.704;6.752;2023-08-17T00:14:01;4.32;;;1.05;;
53710;SDS011;39605;52.704;6.752;2023-08-17T00:16:27;4.50;;;1.27;;
53710;SDS011;39605;52.704;6.752;2023-08-17T00:18:53;3.00;;;1.08;;
53710;SDS011;39605;52.704;6.752;2023-08-17T00:21:19;5.50;;;1.17;;
53710;SDS011;39605;52.704;6.752;2023-08-17T00:23:45;4.85;;;1.27;;
53710;SDS011;39605;52.704;6.752;2023-08-17T00:26:11;8.40;;;1.25;;
53710;SDS011;39605;52.704;6.752;2023-08-17T00:28:39;7.45;;;1.20;;
53710;SDS011;39605;52.704;6.752;2023-08-17T00:31:05;4.35;;;1.10;;
53710;SDS011;39605;52.704;6.752;2023-08-17T00:33:31;1.83;;;1.10;;
53710;SDS011;39605;52.704;6.752;2023-08-17T00:35:57;4.25;;;1.08;;
53710;SDS011;39605;52.704;6.752;2023-08-17T00:38:23;5.70;;;0.98;;
53710;SDS011;39605;52.704;6.752;2023-08-17T00:40:50;5.70;;;1.42;;
53710;SDS011;39605;52.704;6.752;2023-08-17T00:43:16;5.03;;;1.05;;
53710;SDS011;39605;52.704;6.752;2023-08-17T00:45:42;4.22;;;1.23;;
53710;SDS011;39605;52.704;6.752;2023-08-17T00:48:09;5.05;;;1.00;;
53710;SDS011;39605;52.704;6.752;2023-08-17T00:50:36;3.85;;;1.38;;
53710;SDS011;39605;52.704;6.752;2023-08-17T00:53:03;4.63;;;1.38;;
53710;SDS011;39605;52.704;6.752;2023-08-17T00:55:29;4.20;;;0.98;;
53710;SDS011;39605;52.704;6.752;2023-08-17T00:57:56;5.07;;;1.00;;
53710;SDS011;39605;52.704;6.752;2023-08-17T01:00:24;5.85;;;1.15;;
53710;SDS011;39605;52.704;6.752;2023-08-17T01:02:53;4.75;;;0.82;;
53710;SDS011;39605;52.704;6.752;2023-08-17T01:05:20;3.85;;;0.80;;
53710;SDS011;39605;52.704;6.752;2023-08-17T01:07:46;5.20;;;0.88;;
53710;SDS011;39605;52.704;6.752;2023-08-17T01:10:12;5.50;;;1.10;;
53710;SDS011;39605;52.704;6.752;2023-08-17T01:15:08;7.55;;;1.00;;
53710;SDS011;39605;52.704;6.752;2023-08-17T01:17:50;5.60;;;1.40;;
53710;SDS011;39605;52.704;6.752;2023-08-17T01:20:18;5.03;;;0.90;;
53710;SDS011;39605;52.704;6.752;2023-08-17T01:22:46;4.15;;;1.00;;
53710;SDS011;39605;52.704;6.752;2023-08-17T01:25:14;5.13;;;1.10;;
53710;SDS011;39605;52.704;6.752;2023-08-17T01:27:42;2.15;;;0.95;;
53710;SDS011;39605;52.704;6.752;2023-08-17T01:30:09;2.83;;;1.00;;
53710;SDS011;39605;52.704;6.752;2023-08-17T01:32:37;4.85;;;0.90;;
53710;SDS011;39605;52.704;6.752;2023-08-17T01:35:11;5.88;;;0.90;;
53710;SDS011;39605;52.704;6.752;2023-08-17T01:37:39;3.25;;;0.68;;
53710;SDS011;39605;52.704;6.752;2023-08-17T01:40:06;4.57;;;0.80;;
53710;SDS011;39605;52.704;6.752;2023-08-17T01:42:33;3.55;;;0.60;;
53710;SDS011;39605;52.704;6.752;2023-08-17T01:44:59;3.20;;;0.90;;
53710;SDS011;39605;52.704;6.752;2023-08-17T01:47:25;3.45;;;1.10;;
53710;SDS011;39605;52.704;6.752;2023-08-17T01:49:52;4.45;;;0.90;;
53710;SDS011;39605;52.704;6.752;2023-08-17T01:52:18;3.30;;;0.82;;
53710;SDS011;39605;52.704;6.752;2023-08-17T01:54:44;3.63;;;0.60;;
53710;SDS011;39605;52.704;6.752;2023-08-17T01:57:10;2.35;;;0.60;;
53710;SDS011;39605;52.704;6.752;2023-08-17T01:59:36;5.13;;;1.20;;
53710;SDS011;39605;52.704;6.752;2023-08-17T02:02:02;4.78;;;0.85;;
53710;SDS011;39605;52.704;6.752;2023-08-17T02:04:28;2.95;;;0.50;;
53710;SDS011;39605;52.704;6.752;2023-08-17T02:06:54;6.07;;;1.10;;
53710;SDS011;39605;52.704;6.752;2023-08-17T02:09:20;2.42;;;0.70;;
53710;SDS011;39605;52.704;6.752;2023-08-17T02:11:46;2.85;;;0.90;;
53710;SDS011;39605;52.704;6.752;2023-08-17T02:14:12;4.03;;;0.82;;
53710;SDS011;39605;52.704;6.752;2023-08-17T02:16:38;6.07;;;1.08;;
53710;SDS011;39605;52.704;6.752;2023-08-17T02:19:04;3.30;;;0.77;;
53710;SDS011;39605;52.704;6.752;2023-08-17T02:21:30;1.90;;;0.50;;
53710;SDS011;39605;52.704;6.752;2023-08-17T02:23:56;2.53;;;0.70;;
53710;SDS011;39605;52.704;6.752;2023-08-17T02:26:23;2.53;;;0.70;;
53710;SDS011;39605;52.704;6.752;2023-08-17T02:28:49;2.47;;;0.82;;
53710;SDS011;39605;52.704;6.752;2023-08-17T02:31:15;5.10;;;0.88;;
53710;SDS011;39605;52.704;6.752;2023-08-17T02:33:41;2.00;;;0.75;;
53710;SDS011;39605;52.704;6.752;2023-08-17T02:36:07;2.25;;;0.60;;
53710;SDS011;39605;52.704;6.752;2023-08-17T02:38:33;5.63;;;0.90;;
53710;SDS011;39605;52.704;6.752;2023-08-17T02:40:59;2.90;;;0.88;;
53710;SDS011;39605;52.704;6.752;2023-08-17T02:43:25;2.20;;;0.60;;
53710;SDS011;39605;52.704;6.752;2023-08-17T02:45:51;5.40;;;0.73;;
53710;SDS011;39605;52.704;6.752;2023-08-17T02:48:18;3.75;;;0.70;;
53710;SDS011;39605;52.704;6.752;2023-08-17T02:50:44;3.92;;;0.70;;
53710;SDS011;39605;52.704;6.752;2023-08-17T02:53:10;2.55;;;0.80;;
53710;SDS011;39605;52.704;6.752;2023-08-17T02:55:36;3.60;;;0.80;;
53710;SDS011;39605;52.704;6.752;2023-08-17T02:58:02;6.25;;;0.70;;
53710;SDS011;39605;52.704;6.752;2023-08-17T03:00:28;4.03;;;0.90;;
53710;SDS011;39605;52.704;6.752;2023-08-17T03:02:54;4.38;;;0.88;;
53710;SDS011;39605;52.704;6.752;2023-08-17T03:05:21;2.70;;;0.85;;
53710;SDS011;39605;52.704;6.752;2023-08-17T03:07:47;4.95;;;0.90;;
53710;SDS011;39605;52.704;6.752;2023-08-17T03:10:13;5.13;;;0.93;;
53710;SDS011;39605;52.704;6.752;2023-08-17T03:12:39;2.40;;;0.70;;
53710;SDS011;39605;52.704;6.752;2023-08-17T03:15:06;4.80;;;0.93;;
53710;SDS011;39605;52.704;6.752;2023-08-17T03:17:32;6.22;;;0.98;;
53710;SDS011;39605;52.704;6.752;2023-08-17T03:19:58;6.00;;;0.88;;
53710;SDS011;39605;52.704;6.752;2023-08-17T03:22:25;2.75;;;0.90;;
53710;SDS011;39605;52.704;6.752;2023-08-17T03:24:51;4.15;;;0.77;;
53710;SDS011;39605;52.704;6.752;2023-08-17T03:27:17;4.55;;;0.70;;
53710;SDS011;39605;52.704;6.752;2023-08-17T03:29:43;1.75;;;0.65;;
53710;SDS011;39605;52.704;6.752;2023-08-17T03:32:09;3.25;;;0.88;;
53710;SDS011;39605;52.704;6.752;2023-08-17T03:34:35;3.55;;;0.90;;
53710;SDS011;39605;52.704;6.752;2023-08-17T03:37:01;5.45;;;0.95;;
53710;SDS011;39605;52.704;6.752;2023-08-17T03:39:27;4.30;;;0.90;;
53710;SDS011;39605;52.704;6.752;2023-08-17T03:41:53;4.78;;;0.80;;
53710;SDS011;39605;52.704;6.752;2023-08-17T03:44:19;2.05;;;0.80;;
53710;SDS011;39605;52.704;6.752;2023-08-17T03:46:46;4.53;;;0.70;;
53710;SDS011;39605;52.704;6.752;2023-08-17T03:49:12;2.05;;;0.88;;
53710;SDS011;39605;52.704;6.752;2023-08-17T03:51:38;4.13;;;0.93;;
53710;SDS011;39605;52.704;6.752;2023-08-17T03:54:04;3.63;;;0.80;;
53710;SDS011;39605;52.704;6.752;2023-08-17T03:56:30;3.42;;;1.08;;
53710;SDS011;39605;52.704;6.752;2023-08-17T03:58:56;3.28;;;1.15;;
53710;SDS011;39605;52.704;6.752;2023-08-17T04:01:22;4.78;;;1.75;;
53710;SDS011;39605;52.704;6.752;2023-08-17T04:03:48;5.15;;;1.77;;
53710;SDS011;39605;52.704;6.752;2023-08-17T04:06:15;4.15;;;1.20;;
53710;SDS011;39605;52.704;6.752;2023-08-17T04:08:41;5.47;;;1.52;;
53710;SDS011;39605;52.704;6.752;2023-08-17T04:11:07;3.80;;;1.38;;
53710;SDS011;39605;52.704;6.752;2023-08-17T04:13:33;5.13;;;1.60;;
53710;SDS011;39605;52.704;6.752;2023-08-17T04:15:59;4.10;;;1.77;;
53710;SDS011;39605;52.704;6.752;2023-08-17T04:18:25;9.02;;;1.83;;
53710;SDS011;39605;52.704;6.752;2023-08-17T04:20:51;6.25;;;2.28;;
53710;SDS011;39605;52.704;6.752;2023-08-17T04:23:18;4.75;;;1.60;;
53710;SDS011;39605;52.704;6.752;2023-08-17T04:25:44;4.97;;;2.13;;
53710;SDS011;39605;52.704;6.752;2023-08-17T04:28:10;5.75;;;2.10;;
53710;SDS011;39605;52.704;6.752;2023-08-17T04:30:37;4.40;;;1.88;;
53710;SDS011;39605;52.704;6.752;2023-08-17T04:33:03;6.72;;;2.03;;
53710;SDS011;39605;52.704;6.752;2023-08-17T04:35:29;6.03;;;1.92;;
53710;SDS011;39605;52.704;6.752;2023-08-17T04:37:55;5.03;;;2.00;;
53710;SDS011;39605;52.704;6.752;2023-08-17T04:40:21;2.92;;;1.35;;
53710;SDS011;39605;52.704;6.752;2023-08-17T04:42:48;8.02;;;2.20;;
53710;SDS011;39605;52.704;6.752;2023-08-17T04:45:14;4.07;;;1.70;;
53710;SDS011;39605;52.704;6.752;2023-08-17T04:47:40;4.88;;;2.17;;
53710;SDS011;39605;52.704;6.752;2023-08-17T04:50:06;6.00;;;1.65;;
53710;SDS011;39605;52.704;6.752;2023-08-17T04:52:32;3.95;;;1.75;;
53710;SDS011;39605;52.704;6.752;2023-08-17T04:54:58;7.88;;;1.73;;
53710;SDS011;39605;52.704;6.752;2023-08-17T04:57:24;8.35;;;2.08;;
53710;SDS011;39605;52.704;6.752;2023-08-17T04:59:52;6.15;;;1.95;;
53710;SDS011;39605;52.704;6.752;2023-08-17T05:02:18;5.28;;;1.77;;
53710;SDS011;39605;52.704;6.752;2023-08-17T05:04:45;5.60;;;1.73;;
53710;SDS011;39605;52.704;6.752;2023-08-17T05:07:11;4.35;;;1.40;;
53710;SDS011;39605;52.704;6.752;2023-08-17T05:09:37;6.25;;;1.55;;
53710;SDS011;39605;52.704;6.752;2023-08-17T05:12:04;4.75;;;1.95;;
53710;SDS011;39605;52.704;6.752;2023-08-17T05:14:30;5.22;;;1.20;;
53710;SDS011;39605;52.704;6.752;2023-08-17T05:16:56;4.70;;;1.45;;
53710;SDS011;39605;52.704;6.752;2023-08-17T05:19:22;2.78;;;0.88;;
53710;SDS011;39605;52.704;6.752;2023-08-17T05:21:49;5.43;;;1.48;;
53710;SDS011;39605;52.704;6.752;2023-08-17T05:24:16;6.22;;;1.25;;
53710;SDS011;39605;52.704;6.752;2023-08-17T05:26:43;5.88;;;1.30;;
53710;SDS011;39605;52.704;6.752;2023-08-17T05:29:09;7.05;;;1.85;;
53710;SDS011;39605;52.704;6.752;2023-08-17T05:31:36;4.75;;;1.42;;
53710;SDS011;39605;52.704;6.752;2023-08-17T05:34:02;4.88;;;1.35;;
53710;SDS011;39605;52.704;6.752;2023-08-17T05:36:28;6.68;;;1.50;;
53710;SDS011;39605;52.704;6.752;2023-08-17T05:38:55;3.70;;;1.13;;
53710;SDS011;39605;52.704;6.752;2023-08-17T05:41:21;3.38;;;1.50;;
53710;SDS011;39605;52.704;6.752;2023-08-17T05:43:48;5.43;;;1.33;;
53710;SDS011;39605;52.704;6.752;2023-08-17T05:46:14;4.25;;;1.30;;
53710;SDS011;39605;52.704;6.752;2023-08-17T05:48:40;3.70;;;1.02;;
53710;SDS011;39605;52.704;6.752;2023-08-17T05:51:06;8.93;;;1.10;;
53710;SDS011;39605;52.704;6.752;2023-08-17T05:53:32;6.20;;;1.08;;
53710;SDS011;39605;52.704;6.752;2023-08-17T05:55:58;4.03;;;1.00;;
53710;SDS011;39605;52.704;6.752;2023-08-17T05:58:24;5.78;;;1.02;;
53710;SDS011;39605;52.704;6.752;2023-08-17T06:00:50;3.20;;;0.88;;
53710;SDS011;39605;52.704;6.752;2023-08-17T06:03:17;5.38;;;1.05;;
53710;SDS011;39605;52.704;6.752;2023-08-17T06:05:43;4.88;;;1.35;;
53710;SDS011;39605;52.704;6.752;2023-08-17T06:08:09;5.18;;;1.02;;
53710;SDS011;39605;52.704;6.752;2023-08-17T06:10:35;6.32;;;1.15;;
53710;SDS011;39605;52.704;6.752;2023-08-17T06:13:01;4.97;;;1.10;;
53710;SDS011;39605;52.704;6.752;2023-08-17T06:15:27;6.25;;;1.08;;
53710;SDS011;39605;52.704;6.752;2023-08-17T06:17:53;2.95;;;0.88;;
53710;SDS011;39605;52.704;6.752;2023-08-17T06:20:19;4.65;;;0.95;;
53710;SDS011;39605;52.704;6.752;2023-08-17T06:22:46;6.03;;;1.30;;
53710;SDS011;39605;52.704;6.752;2023-08-17T06:25:14;4.75;;;0.70;;
53710;SDS011;39605;52.704;6.752;2023-08-17T06:27:40;2.78;;;0.85;;
53710;SDS011;39605;52.704;6.752;2023-08-17T06:30:07;6.68;;;1.13;;
53710;SDS011;39605;52.704;6.752;2023-08-17T06:32:33;3.50;;;0.90;;
53710;SDS011;39605;52.704;6.752;2023-08-17T06:34:59;4.60;;;0.95;;
53710;SDS011;39605;52.704;6.752;2023-08-17T06:37:25;4.05;;;0.85;;
53710;SDS011;39605;52.704;6.752;2023-08-17T06:39:51;3.15;;;0.80;;
53710;SDS011;39605;52.704;6.752;2023-08-17T06:42:17;2.92;;;0.73;;
53710;SDS011;39605;52.704;6.752;2023-08-17T06:44:43;2.88;;;0.60;;
53710;SDS011;39605;52.704;6.752;2023-08-17T06:47:10;2.85;;;0.80;;
53710;SDS011;39605;52.704;6.752;2023-08-17T06:49:36;4.50;;;0.70;;
53710;SDS011;39605;52.704;6.752;2023-08-17T06:52:02;2.97;;;0.60;;
53710;SDS011;39605;52.704;6.752;2023-08-17T06:54:28;7.53;;;1.27;;
53710;SDS011;39605;52.704;6.752;2023-08-17T06:56:55;3.33;;;0.77;;
53710;SDS011;39605;52.704;6.752;2023-08-17T06:59:21;1.33;;;0.88;;
53710;SDS011;39605;52.704;6.752;2023-08-17T07:01:47;3.50;;;0.82;;
53710;SDS011;39605;52.704;6.752;2023-08-17T07:04:13;4.78;;;1.00;;
53710;SDS011;39605;52.704;6.752;2023-08-17T07:06:40;2.95;;;0.80;;
53710;SDS011;39605;52.704;6.752;2023-08-17T07:09:06;3.50;;;0.70;;
53710;SDS011;39605;52.704;6.752;2023-08-17T07:11:32;5.82;;;0.95;;
53710;SDS011;39605;52.704;6.752;2023-08-17T07:13:58;2.58;;;0.52;;
53710;SDS011;39605;52.704;6.752;2023-08-17T07:16:24;3.88;;;0.60;;
53710;SDS011;39605;52.704;6.752;2023-08-17T07:18:50;2.30;;;0.52;;
53710;SDS011;39605;52.704;6.752;2023-08-17T07:21:16;4.30;;;0.47;;
53710;SDS011;39605;52.704;6.752;2023-08-17T07:23:43;4.65;;;1.10;;
53710;SDS011;39605;52.704;6.752;2023-08-17T07:26:10;4.20;;;0.50;;
53710;SDS011;39605;52.704;6.752;2023-08-17T07:28:36;4.18;;;0.60;;
53710;SDS011;39605;52.704;6.752;2023-08-17T07:31:02;5.40;;;0.93;;
53710;SDS011;39605;52.704;6.752;2023-08-17T07:33:28;4.15;;;0.60;;
53710;SDS011;39605;52.704;6.752;2023-08-17T07:35:54;3.95;;;0.52;;
53710;SDS011;39605;52.704;6.752;2023-08-17T07:38:23;3.78;;;0.65;;
53710;SDS011;39605;52.704;6.752;2023-08-17T07:40:49;3.88;;;0.70;;
53710;SDS011;39605;52.704;6.752;2023-08-17T07:43:15;3.30;;;0.60;;
53710;SDS011;39605;52.704;6.752;2023-08-17T07:45:41;2.60;;;0.50;;
53710;SDS011;39605;52.704;6.752;2023-08-17T07:48:07;3.00;;;0.60;;
53710;SDS011;39605;52.704;6.752;2023-08-17T07:50:33;3.17;;;0.50;;
53710;SDS011;39605;52.704;6.752;2023-08-17T07:52:59;4.80;;;0.57;;
53710;SDS011;39605;52.704;6.752;2023-08-17T07:55:26;1.83;;;0.60;;
53710;SDS011;39605;52.704;6.752;2023-08-17T07:57:52;4.30;;;0.50;;
53710;SDS011;39605;52.704;6.752;2023-08-17T08:00:18;2.53;;;0.40;;
53710;SDS011;39605;52.704;6.752;2023-08-17T08:02:45;3.92;;;0.40;;
53710;SDS011;39605;52.704;6.752;2023-08-17T08:05:11;2.40;;;0.50;;
53710;SDS011;39605;52.704;6.752;2023-08-17T08:07:39;1.83;;;0.40;;
53710;SDS011;39605;52.704;6.752;2023-08-17T08:10:06;3.50;;;0.57;;
53710;SDS011;39605;52.704;6.752;2023-08-17T08:12:32;4.38;;;0.90;;
53710;SDS011;39605;52.704;6.752;2023-08-17T08:14:58;2.92;;;0.60;;
53710;SDS011;39605;52.704;6.752;2023-08-17T08:17:25;1.92;;;0.43;;
53710;SDS011;39605;52.704;6.752;2023-08-17T08:19:51;3.40;;;0.60;;
53710;SDS011;39605;52.704;6.752;2023-08-17T08:22:18;3.63;;;0.47;;
53710;SDS011;39605;52.704;6.752;2023-08-17T08:24:45;4.03;;;0.70;;
53710;SDS011;39605;52.704;6.752;2023-08-17T08:27:11;2.65;;;0.60;;
53710;SDS011;39605;52.704;6.752;2023-08-17T08:29:37;3.90;;;0.60;;
53710;SDS011;39605;52.704;6.752;2023-08-17T08:32:04;4.85;;;0.65;;
53710;SDS011;39605;52.704;6.752;2023-08-17T08:34:30;5.97;;;0.80;;
53710;SDS011;39605;52.704;6.752;2023-08-17T08:36:57;2.33;;;0.60;;
53710;SDS011;39605;52.704;6.752;2023-08-17T08:39:25;3.58;;;0.70;;
53710;SDS011;39605;52.704;6.752;2023-08-17T08:41:53;2.25;;;0.50;;
53710;SDS011;39605;52.704;6.752;2023-08-17T08:44:19;4.18;;;0.50;;
53710;SDS011;39605;52.704;6.752;2023-08-17T08:46:45;5.25;;;0.60;;
53710;SDS011;39605;52.704;6.752;2023-08-17T08:49:12;1.77;;;0.43;;
53710;SDS011;39605;52.704;6.752;2023-08-17T08:51:44;2.45;;;0.40;;
53710;SDS011;39605;52.704;6.752;2023-08-17T08:54:12;7.95;;;0.60;;
53710;SDS011;39605;52.704;6.752;2023-08-17T08:56:38;4.93;;;0.40;;
53710;SDS011;39605;52.704;6.752;2023-08-17T08:59:05;2.38;;;0.50;;
53710;SDS011;39605;52.704;6.752;2023-08-17T09:01:31;5.20;;;0.60;;
53710;SDS011;39605;52.704;6.752;2023-08-17T09:04:01;3.85;;;0.82;;
53710;SDS011;39605;52.704;6.752;2023-08-17T09:06:29;1.98;;;0.47;;
53710;SDS011;39605;52.704;6.752;2023-08-17T09:08:56;3.67;;;0.70;;
53710;SDS011;39605;52.704;6.752;2023-08-17T09:11:23;5.75;;;0.40;;
53710;SDS011;39605;52.704;6.752;2023-08-17T09:13:49;1.85;;;0.40;;
53710;SDS011;39605;52.704;6.752;2023-08-17T09:16:15;2.10;;;0.30;;
53710;SDS011;39605;52.704;6.752;2023-08-17T09:18:42;3.47;;;0.40;;
53710;SDS011;39605;52.704;6.752;2023-08-17T09:21:08;1.70;;;0.40;;
53710;SDS011;39605;52.704;6.752;2023-08-17T09:23:34;3.85;;;0.60;;
53710;SDS011;39605;52.704;6.752;2023-08-17T09:26:00;2.30;;;0.50;;
53710;SDS011;39605;52.704;6.752;2023-08-17T09:28:31;2.03;;;0.60;;
53710;SDS011;39605;52.704;6.752;2023-08-17T09:31:01;3.70;;;0.80;;
53710;SDS011;39605;52.704;6.752;2023-08-17T09:33:30;2.70;;;0.60;;
53710;SDS011;39605;52.704;6.752;2023-08-17T09:35:57;4.75;;;0.60;;
53710;SDS011;39605;52.704;6.752;2023-08-17T09:38:23;3.92;;;0.60;;
53710;SDS011;39605;52.704;6.752;2023-08-17T09:40:50;2.88;;;0.55;;
53710;SDS011;39605;52.704;6.752;2023-08-17T09:43:17;2.42;;;0.60;;
53710;SDS011;39605;52.704;6.752;2023-08-17T09:45:44;4.88;;;0.47;;
53710;SDS011;39605;52.704;6.752;2023-08-17T09:48:16;3.33;;;0.60;;
53710;SDS011;39605;52.704;6.752;2023-08-17T09:50:46;2.70;;;0.70;;
53710;SDS011;39605;52.704;6.752;2023-08-17T09:53:13;2.95;;;0.50;;
53710;SDS011;39605;52.704;6.752;2023-08-17T09:55:40;2.80;;;0.60;;
53710;SDS011;39605;52.704;6.752;2023-08-17T09:58:06;3.60;;;0.82;;
53710;SDS011;39605;52.704;6.752;2023-08-17T10:00:33;3.80;;;0.60;;
53710;SDS011;39605;52.704;6.752;2023-08-17T10:03:01;1.40;;;0.57;;
53710;SDS011;39605;52.704;6.752;2023-08-17T10:05:28;5.20;;;0.85;;
53710;SDS011;39605;52.704;6.752;2023-08-17T10:07:57;2.42;;;0.50;;
53710;SDS011;39605;52.704;6.752;2023-08-17T10:10:26;3.30;;;0.50;;
53710;SDS011;39605;52.704;6.752;2023-08-17T10:13:09;2.85;;;1.02;;
53710;SDS011;39605;52.704;6.752;2023-08-17T10:15:51;2.95;;;0.85;;
53710;SDS011;39605;52.704;6.752;2023-08-17T10:18:29;2.65;;;0.73;;
53710;SDS011;39605;52.704;6.752;2023-08-17T10:21:00;3.42;;;0.50;;
53710;SDS011;39605;52.704;6.752;2023-08-17T10:23:27;2.42;;;0.60;;
53710;SDS011;39605;52.704;6.752;2023-08-17T10:25:53;3.08;;;0.90;;
53710;SDS011;39605;52.704;6.752;2023-08-17T10:28:20;2.83;;;1.00;;
53710;SDS011;39605;52.704;6.752;2023-08-17T10:30:47;3.95;;;0.88;;
53710;SDS011;39605;52.704;6.752;2023-08-17T10:33:13;2.63;;;0.80;;
53710;SDS011;39605;52.704;6.752;2023-08-17T10:35:40;2.85;;;0.77;;
53710;SDS011;39605;52.704;6.752;2023-08-17T10:38:07;3.47;;;0.63;;
53710;SDS011;39605;52.704;6.752;2023-08-17T10:40:37;1.27;;;0.65;;
53710;SDS011;39605;52.704;6.752;2023-08-17T10:43:03;2.40;;;0.60;;
53710;SDS011;39605;52.704;6.752;2023-08-17T10:45:36;1.88;;;0.85;;
53710;SDS011;39605;52.704;6.752;2023-08-17T10:50:36;1.70;;;0.70;;
53710;SDS011;39605;52.704;6.752;2023-08-17T10:53:03;2.60;;;0.82;;
53710;SDS011;39605;52.704;6.752;2023-08-17T10:55:36;3.25;;;0.70;;
53710;SDS011;39605;52.704;6.752;2023-08-17T10:58:03;2.15;;;0.90;;
53710;SDS011;39605;52.704;6.752;2023-08-17T11:00:36;4.80;;;0.80;;
53710;SDS011;39605;52.704;6.752;2023-08-17T11:03:06;1.40;;;0.70;;
53710;SDS011;39605;52.704;6.752;2023-08-17T11:08:04;4.05;;;0.90;;
53710;SDS011;39605;52.704;6.752;2023-08-17T11:10:31;2.65;;;1.55;;
53710;SDS011;39605;52.704;6.752;2023-08-17T11:12:58;3.47;;;1.25;;
53710;SDS011;39605;52.704;6.752;2023-08-17T11:15:25;3.33;;;1.15;;
53710;SDS011;39605;52.704;6.752;2023-08-17T11:17:52;4.10;;;1.20;;
53710;SDS011;39605;52.704;6.752;2023-08-17T11:20:18;3.30;;;1.30;;
53710;SDS011;39605;52.704;6.752;2023-08-17T11:22:45;1.70;;;1.13;;
53710;SDS011;39605;52.704;6.752;2023-08-17T11:25:12;3.55;;;1.23;;
53710;SDS011;39605;52.704;6.752;2023-08-17T11:27:39;2.58;;;1.25;;
53710;SDS011;39605;52.704;6.752;2023-08-17T11:30:05;4.15;;;1.52;;
53710;SDS011;39605;52.704;6.752;2023-08-17T11:32:31;3.00;;;1.35;;
53710;SDS011;39605;52.704;6.752;2023-08-17T11:34:57;1.98;;;1.40;;
53710;SDS011;39605;52.704;6.752;2023-08-17T11:37:23;3.42;;;1.60;;
53710;SDS011;39605;52.704;6.752;2023-08-17T11:39:49;9.63;;;3.10;;
53710;SDS011;39605;52.704;6.752;2023-08-17T11:42:15;2.53;;;1.30;;
53710;SDS011;39605;52.704;6.752;2023-08-17T11:44:42;5.30;;;2.50;;
53710;SDS011;39605;52.704;6.752;2023-08-17T11:47:08;3.50;;;1.70;;
53710;SDS011;39605;52.704;6.752;2023-08-17T11:49:34;3.53;;;2.08;;
53710;SDS011;39605;52.704;6.752;2023-08-17T11:52:00;2.47;;;2.10;;
53710;SDS011;39605;52.704;6.752;2023-08-17T11:54:26;3.10;;;2.25;;
53710;SDS011;39605;52.704;6.752;2023-08-17T11:56:52;4.32;;;1.92;;
53710;SDS011;39605;52.704;6.752;2023-08-17T11:59:18;3.03;;;2.05;;
53710;SDS011;39605;52.704;6.752;2023-08-17T12:01:45;5.32;;;2.15;;
53710;SDS011;39605;52.704;6.752;2023-08-17T12:04:11;2.53;;;1.95;;
53710;SDS011;39605;52.704;6.752;2023-08-17T12:06:43;3.33;;;3.03;;
53710;SDS011;39605;52.704;6.752;2023-08-17T12:09:10;4.20;;;2.03;;
53710;SDS011;39605;52.704;6.752;2023-08-17T12:11:39;2.63;;;2.20;;
53710;SDS011;39605;52.704;6.752;2023-08-17T12:14:11;3.03;;;1.85;;
53710;SDS011;39605;52.704;6.752;2023-08-17T12:16:47;4.40;;;2.13;;
53710;SDS011;39605;52.704;6.752;2023-08-17T12:19:14;3.67;;;2.03;;
53710;SDS011;39605;52.704;6.752;2023-08-17T12:21:40;4.20;;;2.22;;
53710;SDS011;39605;52.704;6.752;2023-08-17T12:24:10;2.38;;;2.17;;
53710;SDS011;39605;52.704;6.752;2023-08-17T12:26:43;4.45;;;2.08;;
53710;SDS011;39605;52.704;6.752;2023-08-17T12:29:09;2.33;;;1.98;;
53710;SDS011;39605;52.704;6.752;2023-08-17T12:31:35;4.15;;;2.42;;
53710;SDS011;39605;52.704;6.752;2023-08-17T12:34:01;2.70;;;2.47;;
53710;SDS011;39605;52.704;6.752;2023-08-17T12:36:28;3.15;;;2.20;;
53710;SDS011;39605;52.704;6.752;2023-08-17T12:38:54;2.05;;;1.95;;
53710;SDS011;39605;52.704;6.752;2023-08-17T12:41:20;4.40;;;2.38;;
53710;SDS011;39605;52.704;6.752;2023-08-17T12:43:46;3.00;;;2.65;;
53710;SDS011;39605;52.704;6.752;2023-08-17T12:46:13;2.30;;;2.10;;
53710;SDS011;39605;52.704;6.752;2023-08-17T12:48:39;2.80;;;1.95;;
53710;SDS011;39605;52.704;6.752;2023-08-17T12:51:05;3.47;;;2.80;;
53710;SDS011;39605;52.704;6.752;2023-08-17T12:53:31;2.40;;;1.83;;
53710;SDS011;39605;52.704;6.752;2023-08-17T12:55:57;2.60;;;2.40;;
53710;SDS011;39605;52.704;6.752;2023-08-17T12:58:23;2.67;;;1.98;;
53710;SDS011;39605;52.704;6.752;2023-08-17T13:00:50;2.60;;;1.77;;
53710;SDS011;39605;52.704;6.752;2023-08-17T13:03:19;1.80;;;1.65;;
53710;SDS011;39605;52.704;6.752;2023-08-17T13:05:45;2.80;;;2.03;;
53710;SDS011;39605;52.704;6.752;2023-08-17T13:08:11;2.58;;;1.55;;
53710;SDS011;39605;52.704;6.752;2023-08-17T13:10:37;2.33;;;2.05;;
53710;SDS011;39605;52.704;6.752;2023-08-17T13:13:03;3.30;;;2.33;;
53710;SDS011;39605;52.704;6.752;2023-08-17T13:15:31;2.63;;;1.80;;
53710;SDS011;39605;52.704;6.752;2023-08-17T13:17:58;2.88;;;2.17;;
53710;SDS011;39605;52.704;6.752;2023-08-17T13:20:24;2.88;;;2.33;;
53710;SDS011;39605;52.704;6.752;2023-08-17T13:22:50;2.88;;;2.58;;
53710;SDS011;39605;52.704;6.752;2023-08-17T13:25:16;3.13;;;2.92;;
53710;SDS011;39605;52.704;6.752;2023-08-17T13:27:43;3.05;;;2.47;;
53710;SDS011;39605;52.704;6.752;2023-08-17T13:30:09;2.30;;;2.10;;
53710;SDS011;39605;52.704;6.752;2023-08-17T13:32:35;3.53;;;3.08;;
53710;SDS011;39605;52.704;6.752;2023-08-17T13:35:02;3.05;;;2.75;;
53710;SDS011;39605;52.704;6.752;2023-08-17T13:37:28;2.47;;;2.20;;
53710;SDS011;39605;52.704;6.752;2023-08-17T13:39:54;3.08;;;2.75;;
53710;SDS011;39605;52.704;6.752;2023-08-17T13:42:20;2.88;;;2.47;;
53710;SDS011;39605;52.704;6.752;2023-08-17T13:44:46;2.55;;;2.30;;
53710;SDS011;39605;52.704;6.752;2023-08-17T13:47:12;3.30;;;3.00;;
53710;SDS011;39605;52.704;6.752;2023-08-17T13:49:38;3.17;;;2.40;;
53710;SDS011;39605;52.704;6.752;2023-08-17T13:52:04;4.53;;;2.97;;
53710;SDS011;39605;52.704;6.752;2023-08-17T13:54:31;3.35;;;3.05;;
53710;SDS011;39605;52.704;6.752;2023-08-17T13:56:57;4.20;;;3.40;;
53710;SDS011;39605;52.704;6.752;2023-08-17T13:59:23;4.85;;;3.22;;
53710;SDS011;39605;52.704;6.752;2023-08-17T14:01:49;5.15;;;3.20;;
53710;SDS011;39605;52.704;6.752;2023-08-17T14:04:15;2.33;;;2.22;;
53710;SDS011;39605;52.704;6.752;2023-08-17T14:06:43;3.70;;;3.13;;
53710;SDS011;39605;52.704;6.752;2023-08-17T14:09:09;3.80;;;3.20;;
53710;SDS011;39605;52.704;6.752;2023-08-17T14:11:35;4.45;;;2.90;;
53710;SDS011;39605;52.704;6.752;2023-08-17T14:14:01;2.65;;;2.45;;
53710;SDS011;39605;52.704;6.752;2023-08-17T14:16:27;2.53;;;2.28;;
53710;SDS011;39605;52.704;6.752;2023-08-17T14:18:53;2.47;;;2.00;;
53710;SDS011;39605;52.704;6.752;2023-08-17T14:21:19;2.67;;;2.28;;
53710;SDS011;39605;52.704;6.752;2023-08-17T14:23:46;3.25;;;2.08;;
53710;SDS011;39605;52.704;6.752;2023-08-17T14:26:12;4.28;;;2.08;;
53710;SDS011;39605;52.704;6.752;2023-08-17T14:28:38;2.40;;;2.20;;
53710;SDS011;39605;52.704;6.752;2023-08-17T14:31:04;2.45;;;1.95;;
53710;SDS011;39605;52.704;6.752;2023-08-17T14:33:30;4.13;;;2.63;;
53710;SDS011;39605;52.704;6.752;2023-08-17T14:35:56;2.60;;;2.40;;
53710;SDS011;39605;52.704;6.752;2023-08-17T14:38:22;2.53;;;2.20;;
53710;SDS011;39605;52.704;6.752;2023-08-17T14:40:48;3.55;;;2.55;;
53710;SDS011;39605;52.704;6.752;2023-08-17T14:43:14;2.53;;;2.33;;
53710;SDS011;39605;52.704;6.752;2023-08-17T14:45:41;3.10;;;2.70;;
53710;SDS011;39605;52.704;6.752;2023-08-17T14:48:07;5.25;;;2.80;;
53710;SDS011;39605;52.704;6.752;2023-08-17T14:50:34;3.17;;;2.90;;
53710;SDS011;39605;52.704;6.752;2023-08-17T14:53:01;3.80;;;2.55;;